Time;durP1;ratioP1;P1;durP2;ratioP2;P2;SDS_P1;SDS_P2;PMS_P1;PMS_P2;Temp;Humidity;BMP_temperature;BMP_pressure;BME280_temperature;BME280_humidity;BME280_pressure;Samples;Min_cycle;Max_cycle;Signal;HPM_P1;HPM_P2
2022/09/27 00:01:02;;;;;;;;;;;9.90;99.90;;;;;;5058934;28;20659;-69
2022/09/27 00:03:29;;;;;;;;;;;9.80;99.90;;;;;;5062214;28;19928;-69
2022/09/27 00:06:05;;;;;;;;;;;9.80;99.90;;;;;;5062846;28;19920;-68
2022/09/27 00:08:31;;;;;;;;;;;9.80;99.90;;;;;;5058551;28;19947;-69
2022/09/27 00:10:59;;;;;;;;;;;9.70;99.90;;;;;;5063630;28;19924;-70
2022/09/27 00:13:26;;;;;;;;;;;9.70;99.90;;;;;;5063313;28;19920;-68
2022/09/27 00:16:02;;;;;;;;;;;9.70;99.90;;;;;;5061220;28;20378;-68
2022/09/27 00:18:30;;;;;;;;;;;9.70;99.90;;;;;;5058941;28;19924;-68
2022/09/27 00:21:03;;;;;;;;;;;9.70;99.90;;;;;;5063105;28;20023;-69
2022/09/27 00:23:29;;;;;;;;;;;9.70;99.90;;;;;;5067254;28;20012;-68
2022/09/27 00:25:57;;;;;;;;;;;9.60;99.90;;;;;;5071143;28;20610;-70
2022/09/27 00:28:24;;;;;;;;;;;9.60;99.90;;;;;;5063653;28;20023;-67
2022/09/27 00:30:51;;;;;;;;;;;9.60;99.90;;;;;;5068523;28;19924;-68
2022/09/27 00:33:18;;;;;;;;;;;9.60;99.90;;;;;;5067178;28;19924;-69
2022/09/27 00:35:45;;;;;;;;;;;9.60;99.90;;;;;;5070010;28;20011;-68
2022/09/27 00:38:12;;;;;;;;;;;9.50;99.90;;;;;;5070788;28;19927;-70
2022/09/27 00:40:39;;;;;;;;;;;9.50;99.90;;;;;;5066701;28;19966;-69
2022/09/27 00:43:16;;;;;;;;;;;9.50;99.90;;;;;;5069653;28;19924;-68
2022/09/27 00:45:45;;;;;;;;;;;9.50;99.90;;;;;;5064541;28;20018;-68
2022/09/27 00:48:14;;;;;;;;;;;9.50;99.90;;;;;;5063971;28;19924;-69
2022/09/27 00:50:43;;;;;;;;;;;9.40;99.90;;;;;;5068829;28;20008;-68
2022/09/27 00:53:15;;;;;;;;;;;9.40;99.90;;;;;;5069147;28;19920;-69
2022/09/27 00:55:51;;;;;;;;;;;9.40;99.90;;;;;;5052917;28;20478;-68
2022/09/27 00:58:20;;;;;;;;;;;9.40;99.90;;;;;;5070490;28;20023;-69
2022/09/27 01:00:49;;;;;;;;;;;9.40;99.90;;;;;;5049874;28;19967;-69
2022/09/27 01:03:24;;;;;;;;;;;9.30;99.90;;;;;;5059060;28;19947;-68
2022/09/27 01:05:51;;;;;;;;;;;9.30;99.90;;;;;;5062929;28;19930;-68
2022/09/27 01:08:18;;;;;;;;;;;9.30;99.90;;;;;;5069011;28;20281;-69
2022/09/27 01:11:00;;;;;;;;;;;9.30;99.90;;;;;;5067812;28;19924;-68
2022/09/27 01:13:33;;;;;;;;;;;9.30;99.90;;;;;;5064933;28;19927;-68
2022/09/27 01:16:09;;;;;;;;;;;9.20;99.90;;;;;;5069056;28;19952;-68
2022/09/27 01:18:41;;;;;;;;;;;9.20;99.90;;;;;;5061257;28;20018;-69
2022/09/27 01:21:27;;;;;;;;;;;9.20;99.90;;;;;;5051517;28;19936;-68
2022/09/27 01:23:57;;;;;;;;;;;9.10;99.90;;;;;;5067366;28;19994;-68
2022/09/27 01:26:34;;;;;;;;;;;9.10;99.90;;;;;;5048414;28;19927;-68
2022/09/27 01:29:15;;;;;;;;;;;9.10;99.90;;;;;;5068073;28;19924;-71
2022/09/27 01:32:14;;;;;;;;;;;9.10;99.90;;;;;;5041743;28;19992;-68
2022/09/27 01:34:48;;;;;;;;;;;9.00;99.90;;;;;;5009399;28;19928;-68
2022/09/27 01:37:37;;;;;;;;;;;9.00;99.90;;;;;;5048010;28;19924;-68
2022/09/27 01:40:23;;;;;;;;;;;9.00;99.90;;;;;;5072717;28;19921;-70
2022/09/27 01:43:13;;;;;;;;;;;9.00;99.90;;;;;;5064851;28;19930;-68
2022/09/27 01:45:51;;;;;;;;;;;9.00;99.90;;;;;;5065150;28;19921;-68
2022/09/27 01:48:37;;;;;;;;;;;9.00;99.90;;;;;;5048360;28;19924;-68
2022/09/27 01:51:16;;;;;;;;;;;8.90;99.90;;;;;;5046825;28;19920;-69
2022/09/27 01:53:50;;;;;;;;;;;8.90;99.90;;;;;;5050401;28;19924;-70
2022/09/27 01:56:40;;;;;;;;;;;8.90;99.90;;;;;;5047058;28;19925;-69
2022/09/27 01:59:28;;;;;;;;;;;8.90;99.90;;;;;;5048393;28;19947;-68
2022/09/27 02:02:07;;;;;;;;;;;8.90;99.90;;;;;;5074653;28;20023;-72
2022/09/27 02:04:55;;;;;;;;;;;8.80;99.90;;;;;;5065909;28;20294;-68
2022/09/27 02:07:26;;;;;;;;;;;8.80;99.90;;;;;;5047545;28;19927;-69
2022/09/27 02:10:00;;;;;;;;;;;8.80;99.90;;;;;;5058825;28;19924;-68
2022/09/27 02:12:59;;;;;;;;;;;8.80;99.90;;;;;;5048267;28;20448;-69
2022/09/27 02:15:26;;;;;;;;;;;8.80;99.90;;;;;;5047034;28;19946;-67
2022/09/27 02:18:15;;;;;;;;;;;8.90;99.90;;;;;;5064152;28;20430;-68
2022/09/27 02:20:49;;;;;;;;;;;8.90;99.90;;;;;;5047076;28;19920;-68
2022/09/27 02:23:16;;;;;;;;;;;8.90;99.90;;;;;;5042745;28;19920;-68
2022/09/27 02:25:50;;;;;;;;;;;9.00;99.90;;;;;;5047247;28;19921;-69
2022/09/27 02:28:23;;;;;;;;;;;9.00;99.90;;;;;;5045160;28;20297;-69
2022/09/27 02:30:50;;;;;;;;;;;9.10;99.90;;;;;;5047173;28;20374;-68
2022/09/27 02:33:35;;;;;;;;;;;9.10;99.90;;;;;;5042871;28;20000;-69
2022/09/27 02:36:02;;;;;;;;;;;9.10;99.90;;;;;;5048881;28;19925;-69
2022/09/27 02:38:30;;;;;;;;;;;9.10;99.90;;;;;;5045324;28;20409;-70
2022/09/27 02:40:58;;;;;;;;;;;9.20;99.90;;;;;;5049856;28;19962;-68
2022/09/27 02:43:28;;;;;;;;;;;9.20;99.90;;;;;;5064681;28;19927;-68
2022/09/27 02:46:13;;;;;;;;;;;9.20;99.90;;;;;;5047327;28;19979;-68
2022/09/27 02:48:43;;;;;;;;;;;9.20;99.90;;;;;;5053261;28;20381;-67
2022/09/27 02:51:16;;;;;;;;;;;9.20;99.90;;;;;;5066709;28;20024;-68
2022/09/27 02:53:52;;;;;;;;;;;9.20;99.90;;;;;;5058101;28;19970;-68
2022/09/27 02:56:46;;;;;;;;;;;9.20;99.90;;;;;;5063611;28;19927;-67
2022/09/27 03:00:09;;;;;;;;;;;9.20;99.90;;;;;;5062754;28;19974;-68
2022/09/27 03:03:00;;;;;;;;;;;9.20;99.90;;;;;;5022417;28;19928;-68
2022/09/27 03:05:29;;;;;;;;;;;9.30;99.90;;;;;;5065876;28;19982;-68
2022/09/27 03:07:56;;;;;;;;;;;9.30;99.90;;;;;;5067650;28;20419;-69
2022/09/27 03:10:26;;;;;;;;;;;9.30;99.90;;;;;;5059302;28;19924;-68
2022/09/27 03:12:53;;;;;;;;;;;9.30;99.90;;;;;;5046625;28;19952;-68
2022/09/27 03:15:20;;;;;;;;;;;9.30;99.90;;;;;;5069637;28;19951;-69
2022/09/27 03:18:12;;;;;;;;;;;9.40;99.90;;;;;;5035509;28;19920;-68
2022/09/27 03:21:05;;;;;;;;;;;9.40;99.90;;;;;;5056727;28;19950;-69
2022/09/27 03:23:32;;;;;;;;;;;9.40;99.90;;;;;;5049988;28;19960;-68
2022/09/27 03:25:59;;;;;;;;;;;9.40;99.90;;;;;;5046400;28;19929;-68
2022/09/27 03:28:28;;;;;;;;;;;9.40;99.90;;;;;;5042298;28;19927;-68
2022/09/27 03:30:55;;;;;;;;;;;9.40;99.90;;;;;;5049827;28;20439;-68
2022/09/27 03:33:46;;;;;;;;;;;9.40;99.90;;;;;;5044785;28;19925;-68
2022/09/27 03:36:13;;;;;;;;;;;9.40;99.90;;;;;;5047576;28;19920;-69
2022/09/27 03:38:41;;;;;;;;;;;9.40;99.90;;;;;;5064463;28;20033;-68
2022/09/27 03:41:10;;;;;;;;;;;9.40;99.90;;;;;;5046697;28;20288;-68
2022/09/27 03:43:38;;;;;;;;;;;9.50;99.90;;;;;;5049446;28;20273;-69
2022/09/27 03:46:05;;;;;;;;;;;9.50;99.90;;;;;;5065563;28;19928;-68
2022/09/27 03:48:32;;;;;;;;;;;9.50;99.90;;;;;;5055624;28;19947;-68
2022/09/27 03:50:58;;;;;;;;;;;9.50;99.90;;;;;;5063340;28;20293;-68
2022/09/27 03:53:25;;;;;;;;;;;9.50;99.90;;;;;;5048356;28;20320;-68
2022/09/27 03:55:52;;;;;;;;;;;9.50;99.90;;;;;;5066521;28;19928;-68
2022/09/27 03:58:19;;;;;;;;;;;9.50;99.90;;;;;;5067990;28;19970;-69
2022/09/27 04:00:46;;;;;;;;;;;9.50;99.90;;;;;;5050268;28;19924;-68
2022/09/27 04:03:13;;;;;;;;;;;9.50;99.90;;;;;;5070694;28;19928;-69
2022/09/27 04:05:59;;;;;;;;;;;9.50;99.90;;;;;;5068503;28;20282;-69
2022/09/27 04:08:35;;;;;;;;;;;9.50;99.90;;;;;;5065520;28;19963;-68
2022/09/27 04:11:04;;;;;;;;;;;9.40;99.90;;;;;;5052036;28;20353;-68
2022/09/27 04:13:31;;;;;;;;;;;9.50;99.90;;;;;;5049057;28;19968;-68
2022/09/27 04:15:58;;;;;;;;;;;9.40;99.90;;;;;;5060280;28;19936;-68
2022/09/27 04:18:48;;;;;;;;;;;9.40;99.90;;;;;;5052506;28;20336;-68
2022/09/27 04:21:39;;;;;;;;;;;9.40;99.90;;;;;;5049924;28;19920;-69
2022/09/27 04:24:10;;;;;;;;;;;9.40;99.90;;;;;;5050586;28;20296;-68
2022/09/27 04:26:38;;;;;;;;;;;9.40;99.90;;;;;;5074831;28;19920;-68
2022/09/27 04:29:11;;;;;;;;;;;9.50;99.90;;;;;;5049976;28;19920;-68
2022/09/27 04:31:42;;;;;;;;;;;9.50;99.90;;;;;;5048407;28;19924;-68
2022/09/27 04:34:15;;;;;;;;;;;9.50;99.90;;;;;;5067777;28;19999;-69
2022/09/27 04:36:42;;;;;;;;;;;9.50;99.90;;;;;;5046406;28;19920;-69
2022/09/27 04:39:14;;;;;;;;;;;9.60;99.90;;;;;;5065690;28;20317;-70
2022/09/27 04:41:43;;;;;;;;;;;9.60;99.90;;;;;;5050153;28;19924;-68
2022/09/27 04:44:11;;;;;;;;;;;9.70;99.90;;;;;;5051059;28;20011;-69
2022/09/27 04:46:40;;;;;;;;;;;9.70;99.90;;;;;;5041095;28;19924;-69
2022/09/27 04:49:09;;;;;;;;;;;9.70;99.90;;;;;;5064587;28;19981;-70
2022/09/27 04:51:36;;;;;;;;;;;9.80;99.90;;;;;;5050258;28;20018;-69
2022/09/27 04:54:03;;;;;;;;;;;9.80;99.90;;;;;;5067285;28;19928;-69
2022/09/27 04:56:39;;;;;;;;;;;9.80;99.90;;;;;;5046311;28;20439;-69
2022/09/27 04:59:08;;;;;;;;;;;9.90;99.90;;;;;;5047768;28;19960;-69
2022/09/27 05:01:37;;;;;;;;;;;9.90;99.90;;;;;;5049298;28;20655;-70
2022/09/27 05:04:15;;;;;;;;;;;9.90;99.90;;;;;;5045660;28;19993;-70
2022/09/27 05:06:46;;;;;;;;;;;9.90;99.90;;;;;;5043883;28;19920;-68
2022/09/27 05:09:24;;;;;;;;;;;10.00;99.90;;;;;;5066653;28;19927;-69
2022/09/27 05:11:54;;;;;;;;;;;10.00;99.90;;;;;;5073804;28;19926;-67
2022/09/27 05:14:36;;;;;;;;;;;10.10;99.90;;;;;;5060945;28;19924;-69
2022/09/27 05:17:22;;;;;;;;;;;10.10;99.90;;;;;;5046061;28;20000;-69
2022/09/27 05:20:09;;;;;;;;;;;10.10;99.90;;;;;;5068663;28;20034;-67
2022/09/27 05:22:42;;;;;;;;;;;10.20;99.90;;;;;;5066650;28;19928;-69
2022/09/27 05:25:09;;;;;;;;;;;10.20;99.90;;;;;;5042461;28;19935;-68
2022/09/27 05:27:36;;;;;;;;;;;10.20;99.90;;;;;;5069404;28;19932;-68
2022/09/27 05:30:06;;;;;;;;;;;10.20;99.90;;;;;;5067013;28;19959;-67
2022/09/27 05:32:56;;;;;;;;;;;10.20;99.90;;;;;;5060241;28;19924;-70
2022/09/27 05:35:26;;;;;;;;;;;10.30;99.90;;;;;;5067292;28;19924;-68
2022/09/27 05:37:58;;;;;;;;;;;10.30;99.90;;;;;;5049891;28;19920;-69
2022/09/27 05:40:29;;;;;;;;;;;10.40;99.90;;;;;;5047807;28;19928;-68
2022/09/27 05:43:07;;;;;;;;;;;10.40;99.90;;;;;;5047563;28;19925;-68
2022/09/27 05:45:34;;;;;;;;;;;10.50;99.90;;;;;;5049519;28;19927;-69
2022/09/27 05:48:04;;;;;;;;;;;10.50;99.90;;;;;;5049003;28;19924;-68
2022/09/27 05:50:35;;;;;;;;;;;10.60;99.90;;;;;;5062416;28;19924;-69
2022/09/27 05:53:02;;;;;;;;;;;10.70;99.90;;;;;;5060816;28;19970;-69
2022/09/27 05:55:29;;;;;;;;;;;10.80;99.90;;;;;;5048443;28;19928;-68
2022/09/27 05:57:59;;;;;;;;;;;10.80;99.90;;;;;;5049984;28;19954;-69
2022/09/27 06:00:37;;;;;;;;;;;10.80;99.90;;;;;;5064002;28;20347;-68
2022/09/27 06:03:19;;;;;;;;;;;10.90;99.90;;;;;;5047401;28;19951;-68
2022/09/27 06:06:05;;;;;;;;;;;10.90;99.90;;;;;;5063523;28;19934;-69
2022/09/27 06:08:38;;;;;;;;;;;11.00;99.90;;;;;;5046217;28;19920;-69
2022/09/27 06:11:08;;;;;;;;;;;11.00;99.90;;;;;;5064138;28;19924;-69
2022/09/27 06:13:38;;;;;;;;;;;11.00;99.90;;;;;;5064253;28;20289;-68
2022/09/27 06:16:05;;;;;;;;;;;11.00;99.90;;;;;;5046496;28;19920;-69
2022/09/27 06:18:34;;;;;;;;;;;11.10;99.90;;;;;;5046054;28;19990;-69
2022/09/27 06:21:01;;;;;;;;;;;11.10;99.90;;;;;;5064169;28;20015;-68
2022/09/27 06:23:31;;;;;;;;;;;11.10;99.90;;;;;;5049138;28;19924;-70
2022/09/27 06:26:03;;;;;;;;;;;11.20;99.90;;;;;;5045882;28;19920;-68
2022/09/27 06:28:39;;;;;;;;;;;11.20;99.90;;;;;;5064771;28;19928;-69
2022/09/27 06:31:10;;;;;;;;;;;11.30;99.90;;;;;;5049554;28;19928;-69
2022/09/27 06:33:45;;;;;;;;;;;11.40;99.90;;;;;;5046514;28;19924;-69
2022/09/27 06:36:13;;;;;;;;;;;11.40;99.90;;;;;;5045536;28;19924;-69
2022/09/27 06:38:41;;;;;;;;;;;11.50;99.90;;;;;;5066312;28;19924;-69
2022/09/27 06:41:15;;;;;;;;;;;11.50;99.90;;;;;;5049408;28;19952;-69
2022/09/27 06:43:55;;;;;;;;;;;11.60;99.90;;;;;;5046024;28;19924;-70
2022/09/27 06:46:41;;;;;;;;;;;11.60;99.90;;;;;;5063537;28;19930;-68
2022/09/27 06:49:26;;;;;;;;;;;11.70;99.90;;;;;;5067847;28;19927;-69
2022/09/27 06:51:56;;;;;;;;;;;11.70;99.90;;;;;;5047448;28;19920;-69
2022/09/27 06:54:22;;;;;;;;;;;11.70;99.90;;;;;;5041974;28;19924;-70
2022/09/27 06:56:49;;;;;;;;;;;11.80;99.90;;;;;;5046592;28;19981;-69
2022/09/27 07:02:20;;;;;;;;;;;11.90;99.90;;;;;;5065779;28;19931;-68
2022/09/27 07:04:57;;;;;;;;;;;11.90;99.90;;;;;;5063756;28;19920;-69
2022/09/27 07:07:37;;;;;;;;;;;11.90;99.90;;;;;;5063404;28;20016;-70
2022/09/27 07:10:04;;;;;;;;;;;12.00;99.90;;;;;;5053642;28;19924;-69
2022/09/27 07:12:36;;;;;;;;;;;12.00;99.90;;;;;;5063422;28;19925;-70
2022/09/27 07:15:04;;;;;;;;;;;12.00;99.90;;;;;;5047561;28;19921;-69
2022/09/27 07:17:31;;;;;;;;;;;12.10;99.90;;;;;;5048708;28;19982;-68
2022/09/27 07:19:58;;;;;;;;;;;12.10;99.90;;;;;;5047822;28;19920;-69
2022/09/27 07:22:24;;;;;;;;;;;12.20;99.90;;;;;;5043745;28;19921;-73
2022/09/27 07:24:55;;;;;;;;;;;12.30;99.90;;;;;;5042841;28;20455;-70
2022/09/27 07:27:24;;;;;;;;;;;12.30;99.90;;;;;;5046868;28;19926;-69
2022/09/27 07:29:52;;;;;;;;;;;12.50;99.90;;;;;;5046332;28;19959;-68
2022/09/27 07:32:20;;;;;;;;;;;12.50;99.90;;;;;;5047361;28;19983;-69
2022/09/27 07:34:47;;;;;;;;;;;12.60;99.90;;;;;;5048177;28;19934;-69
2022/09/27 07:37:16;;;;;;;;;;;12.70;99.90;;;;;;5051861;28;19920;-69
2022/09/27 07:39:43;;;;;;;;;;;12.70;99.90;;;;;;5063684;28;20282;-69
2022/09/27 07:42:12;;;;;;;;;;;12.80;99.90;;;;;;5047547;28;20019;-68
2022/09/27 07:44:43;;;;;;;;;;;12.80;99.90;;;;;;5031854;28;19977;-69
2022/09/27 07:47:29;;;;;;;;;;;12.80;99.90;;;;;;5047248;28;20321;-69
2022/09/27 07:50:15;;;;;;;;;;;12.80;99.90;;;;;;5075096;28;20362;-70
2022/09/27 07:52:57;;;;;;;;;;;12.80;99.90;;;;;;5050892;28;20389;-69
2022/09/27 07:55:26;;;;;;;;;;;12.90;99.90;;;;;;5066915;28;19935;-70
2022/09/27 07:58:03;;;;;;;;;;;12.90;99.90;;;;;;5046856;28;20435;-71
2022/09/27 08:00:30;;;;;;;;;;;12.90;99.90;;;;;;5067431;28;20005;-69
2022/09/27 08:02:57;;;;;;;;;;;12.90;99.90;;;;;;5051612;28;19959;-68
2022/09/27 08:05:23;;;;;;;;;;;12.90;99.90;;;;;;5048885;28;19928;-72
2022/09/27 08:07:55;;;;;;;;;;;12.80;99.90;;;;;;5067888;28;20015;-70
2022/09/27 08:10:26;;;;;;;;;;;12.80;99.90;;;;;;5065768;28;19943;-69
2022/09/27 08:12:53;;;;;;;;;;;12.80;99.90;;;;;;5057937;28;20445;-68
2022/09/27 08:15:20;;;;;;;;;;;12.80;99.90;;;;;;5066584;28;20345;-72
2022/09/27 08:17:47;;;;;;;;;;;12.80;99.90;;;;;;5048883;28;19920;-68
2022/09/27 08:20:17;;;;;;;;;;;13.00;99.90;;;;;;5073938;28;20328;-68
2022/09/27 08:23:04;;;;;;;;;;;13.00;99.90;;;;;;5064259;28;19989;-70
2022/09/27 08:25:39;;;;;;;;;;;13.10;99.90;;;;;;5044457;28;20573;-68
2022/09/27 08:28:21;;;;;;;;;;;13.10;99.90;;;;;;5045842;28;19920;-70
2022/09/27 08:31:03;;;;;;;;;;;13.10;99.90;;;;;;5048717;28;19974;-67
2022/09/27 08:33:31;;;;;;;;;;;13.10;99.90;;;;;;5050325;28;20385;-69
2022/09/27 08:36:09;;;;;;;;;;;13.10;99.90;;;;;;5043965;28;20016;-69
2022/09/27 08:38:36;;;;;;;;;;;13.10;99.90;;;;;;5065976;28;20552;-72
2022/09/27 08:41:19;;;;;;;;;;;13.10;99.90;;;;;;5071124;28;20019;-68
2022/09/27 08:43:54;;;;;;;;;;;13.10;99.90;;;;;;5043922;28;19924;-70
2022/09/27 08:46:26;;;;;;;;;;;13.00;99.90;;;;;;5054850;28;19927;-70
2022/09/27 08:49:03;;;;;;;;;;;12.90;99.90;;;;;;5047691;28;19928;-70
2022/09/27 08:51:31;;;;;;;;;;;12.70;99.90;;;;;;5044739;28;19927;-69
2022/09/27 08:54:05;;;;;;;;;;;12.40;99.90;;;;;;5044633;28;19930;-69
2022/09/27 08:56:32;;;;;;;;;;;12.20;99.90;;;;;;5047644;28;19920;-69
2022/09/27 08:59:05;;;;;;;;;;;12.00;99.90;;;;;;5046300;28;19928;-69
2022/09/27 09:01:33;;;;;;;;;;;12.00;99.90;;;;;;5047604;28;20784;-69
2022/09/27 09:04:15;;;;;;;;;;;11.90;99.90;;;;;;5049262;28;19956;-71
2022/09/27 09:07:02;;;;;;;;;;;11.90;99.90;;;;;;5044737;28;19948;-68
2022/09/27 09:09:46;;;;;;;;;;;11.90;99.90;;;;;;5014173;28;19970;-70
2022/09/27 09:12:46;;;;;;;;;;;11.80;99.90;;;;;;5050163;28;19935;-68
2022/09/27 09:15:28;;;;;;;;;;;11.80;99.90;;;;;;5050303;28;20278;-71
2022/09/27 09:18:10;;;;;;;;;;;11.80;99.90;;;;;;5049251;28;20388;-70
2022/09/27 09:20:58;;;;;;;;;;;11.80;99.90;;;;;;5051992;28;19920;-69
2022/09/27 09:23:37;;;;;;;;;;;11.70;99.90;;;;;;5046561;28;19955;-71
2022/09/27 09:26:16;;;;;;;;;;;11.70;99.90;;;;;;5050493;28;19928;-68
2022/09/27 09:28:52;;;;;;;;;;;11.60;99.90;;;;;;5056472;28;20360;-70
2022/09/27 09:31:20;;;;;;;;;;;11.60;99.90;;;;;;5054228;28;19924;-69
2022/09/27 09:33:53;;;;;;;;;;;11.60;99.90;;;;;;5062298;28;19928;-68
2022/09/27 09:36:29;;;;;;;;;;;11.70;99.90;;;;;;5046171;28;20035;-68
2022/09/27 09:39:15;;;;;;;;;;;11.70;99.90;;;;;;5064522;28;19955;-71
2022/09/27 09:41:50;;;;;;;;;;;11.70;99.90;;;;;;5062101;28;20011;-67
2022/09/27 09:44:17;;;;;;;;;;;11.80;99.90;;;;;;5068442;28;20019;-71
2022/09/27 09:46:46;;;;;;;;;;;11.90;99.90;;;;;;5049231;28;20074;-69
2022/09/27 09:49:27;;;;;;;;;;;11.90;99.90;;;;;;5044561;28;20003;-68
2022/09/27 09:52:00;;;;;;;;;;;12.00;99.90;;;;;;5048584;28;19920;-67
2022/09/27 09:54:36;;;;;;;;;;;12.00;99.90;;;;;;5044488;28;19970;-67
2022/09/27 09:57:12;;;;;;;;;;;12.00;99.90;;;;;;5051093;28;19925;-68
2022/09/27 09:59:38;;;;;;;;;;;12.10;99.90;;;;;;5042661;28;19928;-72
2022/09/27 10:02:32;;;;;;;;;;;12.20;99.90;;;;;;5048894;28;19945;-70
2022/09/27 10:05:06;;;;;;;;;;;12.20;99.90;;;;;;5059934;28;19920;-69
2022/09/27 10:07:37;;;;;;;;;;;12.30;99.90;;;;;;5050254;28;20411;-69
2022/09/27 10:10:05;;;;;;;;;;;12.50;99.90;;;;;;5044991;28;19924;-68
2022/09/27 10:12:50;;;;;;;;;;;12.60;99.90;;;;;;5062232;28;19943;-68
2022/09/27 10:15:26;;;;;;;;;;;12.70;99.90;;;;;;5053231;28;19928;-69
2022/09/27 10:17:55;;;;;;;;;;;12.80;99.90;;;;;;5046341;28;19924;-74
2022/09/27 10:20:28;;;;;;;;;;;13.00;99.90;;;;;;5061143;28;20332;-68
2022/09/27 10:23:16;;;;;;;;;;;13.00;99.90;;;;;;5042177;28;19962;-69
2022/09/27 10:26:03;;;;;;;;;;;13.10;99.90;;;;;;5045352;28;19926;-69
2022/09/27 10:28:51;;;;;;;;;;;13.20;99.90;;;;;;5061312;28;19920;-68
2022/09/27 10:31:33;;;;;;;;;;;13.30;99.90;;;;;;5046954;28;19928;-70
2022/09/27 10:34:18;;;;;;;;;;;13.40;99.90;;;;;;5039259;28;20010;-71
2022/09/27 10:37:00;;;;;;;;;;;13.50;99.90;;;;;;5038865;28;20469;-68
2022/09/27 10:39:27;;;;;;;;;;;13.60;99.90;;;;;;5043961;28;19950;-70
2022/09/27 10:41:55;;;;;;;;;;;13.70;99.90;;;;;;5046129;28;20442;-69
2022/09/27 10:44:39;;;;;;;;;;;13.80;99.90;;;;;;5044006;28;20024;-67
2022/09/27 10:47:21;;;;;;;;;;;13.90;99.90;;;;;;5045425;28;19920;-70
2022/09/27 10:50:06;;;;;;;;;;;13.90;99.90;;;;;;5047141;28;20421;-68
2022/09/27 10:52:59;;;;;;;;;;;14.00;99.90;;;;;;5041965;28;19924;-68
2022/09/27 10:55:26;;;;;;;;;;;14.20;99.90;;;;;;5048106;28;19952;-68
2022/09/27 10:57:55;;;;;;;;;;;14.30;99.90;;;;;;5047867;28;19971;-68
2022/09/27 11:00:24;;;;;;;;;;;14.30;99.90;;;;;;5046016;28;20494;-67
2022/09/27 11:02:52;;;;;;;;;;;14.40;99.90;;;;;;5045683;28;19924;-69
2022/09/27 11:05:26;;;;;;;;;;;14.40;99.90;;;;;;5046843;28;19927;-70
2022/09/27 11:07:54;;;;;;;;;;;14.40;99.90;;;;;;5063793;28;19966;-71
2022/09/27 11:10:33;;;;;;;;;;;14.40;99.90;;;;;;5048177;28;19924;-68
2022/09/27 11:13:05;;;;;;;;;;;14.50;99.90;;;;;;5045371;28;19924;-67
2022/09/27 11:15:51;;;;;;;;;;;14.50;99.90;;;;;;5042627;28;19920;-67
2022/09/27 11:18:30;;;;;;;;;;;14.70;99.90;;;;;;5071743;28;19950;-72
2022/09/27 11:20:57;;;;;;;;;;;14.70;99.90;;;;;;5059466;28;20285;-67
2022/09/27 11:23:28;;;;;;;;;;;14.80;99.90;;;;;;5045306;28;20026;-70
2022/09/27 11:26:00;;;;;;;;;;;14.90;99.90;;;;;;5046706;28;19926;-68
2022/09/27 11:28:32;;;;;;;;;;;14.90;99.90;;;;;;5060346;28;19920;-67
2022/09/27 11:31:19;;;;;;;;;;;15.00;99.90;;;;;;5047998;28;20673;-68
2022/09/27 11:34:06;;;;;;;;;;;15.00;99.90;;;;;;5046767;28;19920;-67
2022/09/27 11:36:51;;;;;;;;;;;15.20;99.90;;;;;;5065202;28;19927;-67
2022/09/27 11:39:21;;;;;;;;;;;15.20;99.90;;;;;;5062117;28;19924;-72
2022/09/27 11:41:50;;;;;;;;;;;15.20;99.90;;;;;;5042983;28;20411;-72
2022/09/27 11:44:20;;;;;;;;;;;15.20;99.90;;;;;;5069686;28;19929;-69
2022/09/27 11:46:53;;;;;;;;;;;15.20;99.90;;;;;;5037797;28;19927;-67
2022/09/27 11:49:27;;;;;;;;;;;15.10;99.90;;;;;;5041244;28;19920;-68
2022/09/27 11:52:17;;;;;;;;;;;15.20;99.90;;;;;;5048031;28;19971;-69
2022/09/27 11:55:02;;;;;;;;;;;15.10;99.90;;;;;;5061317;28;19934;-66
2022/09/27 11:57:34;;;;;;;;;;;15.00;99.90;;;;;;5061433;28;20385;-70
2022/09/27 12:00:09;;;;;;;;;;;15.00;99.90;;;;;;5061297;28;19935;-70
2022/09/27 12:02:41;;;;;;;;;;;15.00;99.90;;;;;;5058461;28;20008;-68
2022/09/27 12:05:10;;;;;;;;;;;15.00;99.90;;;;;;5046342;28;19967;-72
2022/09/27 12:07:43;;;;;;;;;;;15.10;99.90;;;;;;5046658;28;19960;-72
2022/09/27 12:10:13;;;;;;;;;;;15.10;99.90;;;;;;5068730;28;19921;-67
2022/09/27 12:12:44;;;;;;;;;;;15.20;99.90;;;;;;5039327;28;20558;-70
2022/09/27 12:15:14;;;;;;;;;;;15.20;99.90;;;;;;5043121;28;19927;-68
2022/09/27 12:17:43;;;;;;;;;;;15.20;99.90;;;;;;5060068;28;20623;-72
2022/09/27 12:20:20;;;;;;;;;;;15.10;99.90;;;;;;5049523;28;20412;-69
2022/09/27 12:22:52;;;;;;;;;;;15.10;99.90;;;;;;5047552;28;19924;-68
2022/09/27 12:25:50;;;;;;;;;;;15.10;99.90;;;;;;5065126;28;20365;-70
2022/09/27 12:28:40;;;;;;;;;;;15.10;99.90;;;;;;5046546;28;19920;-72
2022/09/27 12:31:15;;;;;;;;;;;15.20;99.90;;;;;;5047750;28;19920;-68
2022/09/27 12:34:09;;;;;;;;;;;15.20;99.90;;;;;;5045700;28;19959;-70
2022/09/27 12:36:43;;;;;;;;;;;15.30;99.90;;;;;;5043757;28;19920;-71
2022/09/27 12:39:20;;;;;;;;;;;15.40;99.90;;;;;;5051621;28;19928;-70
2022/09/27 12:41:59;;;;;;;;;;;15.40;99.90;;;;;;5045866;28;19928;-69
2022/09/27 12:44:40;;;;;;;;;;;15.50;99.90;;;;;;5042199;28;19952;-68
2022/09/27 12:47:07;;;;;;;;;;;15.60;99.90;;;;;;5052010;28;20015;-71
2022/09/27 12:49:53;;;;;;;;;;;15.60;99.90;;;;;;5049243;28;19936;-72
2022/09/27 12:52:29;;;;;;;;;;;15.60;99.90;;;;;;5064557;28;19924;-68
2022/09/27 12:55:16;;;;;;;;;;;15.60;99.90;;;;;;5052562;28;20378;-67
2022/09/27 12:57:46;;;;;;;;;;;15.50;99.90;;;;;;5067391;28;19920;-68
2022/09/27 13:00:23;;;;;;;;;;;15.60;99.90;;;;;;5045950;28;19920;-70
2022/09/27 13:03:00;;;;;;;;;;;15.50;99.90;;;;;;5046603;28;19920;-67
2022/09/27 13:05:57;;;;;;;;;;;15.40;99.90;;;;;;5051564;28;20010;-67
2022/09/27 13:08:23;;;;;;;;;;;15.30;99.90;;;;;;5051630;28;19920;-68
2022/09/27 13:11:09;;;;;;;;;;;15.30;99.90;;;;;;5053435;28;19921;-68
2022/09/27 13:13:38;;;;;;;;;;;15.10;99.90;;;;;;5046614;28;19920;-70
2022/09/27 13:16:07;;;;;;;;;;;15.00;99.90;;;;;;5047402;28;20007;-69
2022/09/27 13:18:50;;;;;;;;;;;15.10;99.90;;;;;;5068568;28;19974;-69
2022/09/27 13:21:36;;;;;;;;;;;15.00;99.90;;;;;;5045451;28;19925;-69
2022/09/27 13:24:33;;;;;;;;;;;15.00;99.90;;;;;;5061233;28;20360;-68
2022/09/27 13:27:00;;;;;;;;;;;14.90;99.90;;;;;;5049354;28;19924;-69
2022/09/27 13:29:29;;;;;;;;;;;14.90;99.90;;;;;;5056158;28;19924;-71
2022/09/27 13:32:02;;;;;;;;;;;14.80;99.90;;;;;;5046029;28;19920;-71
2022/09/27 13:34:47;;;;;;;;;;;14.80;99.90;;;;;;5048526;28;19943;-68
2022/09/27 13:37:28;;;;;;;;;;;14.80;99.90;;;;;;5046724;28;19955;-70
2022/09/27 13:40:19;;;;;;;;;;;14.80;99.90;;;;;;5048007;28;20407;-68
2022/09/27 13:43:06;;;;;;;;;;;14.80;99.90;;;;;;5057674;28;19928;-68
2022/09/27 13:45:36;;;;;;;;;;;14.90;99.90;;;;;;5047144;28;19948;-68
2022/09/27 13:48:09;;;;;;;;;;;14.90;99.90;;;;;;5068479;28;19946;-68
2022/09/27 13:50:55;;;;;;;;;;;15.00;99.90;;;;;;5047929;28;19977;-69
2022/09/27 13:53:29;;;;;;;;;;;15.10;99.90;;;;;;5063073;28;19920;-71
2022/09/27 13:55:56;;;;;;;;;;;15.20;99.90;;;;;;5069654;28;20361;-68
2022/09/27 13:59:03;;;;;;;;;;;15.30;99.90;;;;;;5045852;28;20502;-68
2022/09/27 14:01:51;;;;;;;;;;;15.50;99.90;;;;;;5033829;28;19924;-71
2022/09/27 14:04:27;;;;;;;;;;;15.60;99.90;;;;;;5048205;28;20015;-69
2022/09/27 14:06:56;;;;;;;;;;;15.60;99.90;;;;;;5048723;28;19920;-69
2022/09/27 14:09:30;;;;;;;;;;;15.50;99.90;;;;;;5050003;28;19924;-70
2022/09/27 14:12:21;;;;;;;;;;;15.50;99.90;;;;;;5049763;28;19920;-70
2022/09/27 14:14:49;;;;;;;;;;;15.40;99.90;;;;;;5049354;28;19940;-68
2022/09/27 14:17:17;;;;;;;;;;;15.40;99.90;;;;;;5048761;28;19927;-69
2022/09/27 14:19:45;;;;;;;;;;;15.20;99.90;;;;;;5047632;28;19925;-70
2022/09/27 14:22:15;;;;;;;;;;;15.30;99.90;;;;;;5064159;28;20009;-69
2022/09/27 14:25:02;;;;;;;;;;;15.20;99.90;;;;;;5062489;28;20033;-70
2022/09/27 14:27:36;;;;;;;;;;;15.10;99.90;;;;;;5050931;28;20022;-69
2022/09/27 14:30:27;;;;;;;;;;;15.10;99.90;;;;;;5054016;28;20446;-71
2022/09/27 14:33:03;;;;;;;;;;;15.10;99.90;;;;;;5050848;28;20407;-69
2022/09/27 14:38:34;;;;;;;;;;;15.00;99.90;;;;;;5066659;28;19920;-69
2022/09/27 14:41:16;;;;;;;;;;;14.90;99.90;;;;;;5050259;28;19920;-70
2022/09/27 14:43:44;;;;;;;;;;;14.90;99.90;;;;;;5068733;28;20503;-71
2022/09/27 14:46:40;;;;;;;;;;;14.90;99.90;;;;;;5064732;28;19930;-68
2022/09/27 14:49:22;;;;;;;;;;;14.80;99.90;;;;;;5040916;28;20271;-72
2022/09/27 14:51:50;;;;;;;;;;;14.80;99.90;;;;;;5062772;28;20368;-69
2022/09/27 14:54:19;;;;;;;;;;;14.80;99.90;;;;;;5058443;28;19920;-71
2022/09/27 14:56:46;;;;;;;;;;;14.70;99.90;;;;;;5058820;28;19992;-70
2022/09/27 14:59:33;;;;;;;;;;;14.60;99.90;;;;;;5065065;28;19999;-70
2022/09/27 15:02:03;;;;;;;;;;;14.60;99.90;;;;;;5062047;28;19935;-73
2022/09/27 15:04:33;;;;;;;;;;;14.50;99.90;;;;;;5059006;28;20031;-69
2022/09/27 15:07:01;;;;;;;;;;;14.60;99.90;;;;;;5059430;28;20443;-71
2022/09/27 15:09:30;;;;;;;;;;;14.60;99.90;;;;;;5061028;28;19943;-71
2022/09/27 15:12:00;;;;;;;;;;;14.50;99.90;;;;;;5063497;28;20042;-70